Airport METAR Information

LTBA 272250Z 03007KT 9999 FEW030 SCT100 18/16 Q1014 NOSIG

VATSIM Livefeed

Card image cap

ATC Bookings

Position Full Name Date Time (UTC)
LTFM_TWR Cenk Tarhan 29/10/2020 1700 ‐ 2000
LTAC_APP Nidzhat Agalarov 29/10/2020 1800 ‐ 2000

Card image cap

Active ATC

No controllers online

Blog

Read our latest news and get to know us better.